sensor_id;sensor_type;location;lat;lon;timestamp;pressure;altitude;pressure_sealevel;temperature;humidity
60337;BME280;46978;50.288;28.624;2023-02-20T00:00:33;98541.03;;;-2.53;84.87
60337;BME280;46978;50.288;28.624;2023-02-20T00:01:35;98543.60;;;-2.52;84.86
60337;BME280;46978;50.288;28.624;2023-02-20T00:02:36;98543.63;;;-2.50;84.80
60337;BME280;46978;50.288;28.624;2023-02-20T00:03:38;98536.11;;;-2.45;84.58
60337;BME280;46978;50.288;28.624;2023-02-20T00:04:40;98543.70;;;-2.47;84.61
60337;BME280;46978;50.288;28.624;2023-02-20T00:05:42;98537.80;;;-2.46;84.56
60337;BME280;46978;50.288;28.624;2023-02-20T00:06:44;98542.88;;;-2.46;84.51
60337;BME280;46978;50.288;28.624;2023-02-20T00:07:46;98542.81;;;-2.49;84.41
60337;BME280;46978;50.288;28.624;2023-02-20T00:08:48;98541.06;;;-2.52;84.41
60337;BME280;46978;50.288;28.624;2023-02-20T00:09:50;98537.70;;;-2.50;84.19
60337;BME280;46978;50.288;28.624;2023-02-20T00:10:51;98547.93;;;-2.47;84.18
60337;BME280;46978;50.288;28.624;2023-02-20T00:11:53;98538.59;;;-2.48;84.07
60337;BME280;46978;50.288;28.624;2023-02-20T00:12:55;98547.05;;;-2.48;83.98
60337;BME280;46978;50.288;28.624;2023-02-20T00:13:56;98539.34;;;-2.53;83.85
60337;BME280;46978;50.288;28.624;2023-02-20T00:14:58;98537.64;;;-2.54;84.20
60337;BME280;46978;50.288;28.624;2023-02-20T00:16:00;98537.61;;;-2.55;84.23
60337;BME280;46978;50.288;28.624;2023-02-20T00:17:02;98535.07;;;-2.55;84.19
60337;BME280;46978;50.288;28.624;2023-02-20T00:18:03;98537.67;;;-2.52;84.00
60337;BME280;46978;50.288;28.624;2023-02-20T00:19:05;98543.60;;;-2.52;83.92
60337;BME280;46978;50.288;28.624;2023-02-20T00:20:08;98545.33;;;-2.50;83.84
60337;BME280;46978;50.288;28.624;2023-02-20T00:21:09;98545.27;;;-2.54;84.09
60337;BME280;46978;50.288;28.624;2023-02-20T00:22:11;98546.14;;;-2.52;83.89
60337;BME280;46978;50.288;28.624;2023-02-20T00:23:13;98543.56;;;-2.53;83.81
60337;BME280;46978;50.288;28.624;2023-02-20T00:24:15;98542.72;;;-2.54;83.67
60337;BME280;46978;50.288;28.624;2023-02-20T00:25:18;98544.38;;;-2.54;83.77
60337;BME280;46978;50.288;28.624;2023-02-20T00:26:20;98546.11;;;-2.53;83.70
60337;BME280;46978;50.288;28.624;2023-02-20T00:27:22;98546.89;;;-2.56;83.43
60337;BME280;46978;50.288;28.624;2023-02-20T00:28:24;98548.52;;;-2.59;83.46
60337;BME280;46978;50.288;28.624;2023-02-20T00:29:25;98542.56;;;-2.61;83.83
60337;BME280;46978;50.288;28.624;2023-02-20T00:30:27;98550.21;;;-2.60;83.57
60337;BME280;46978;50.288;28.624;2023-02-20T00:31:29;98545.16;;;-2.58;83.41
60337;BME280;46978;50.288;28.624;2023-02-20T00:32:30;98542.59;;;-2.60;83.32
60337;BME280;46978;50.288;28.624;2023-02-20T00:33:32;98546.86;;;-2.57;83.42
60337;BME280;46978;50.288;28.624;2023-02-20T00:34:34;98546.89;;;-2.56;83.31
60337;BME280;46978;50.288;28.624;2023-02-20T00:35:35;98546.05;;;-2.56;83.29
60337;BME280;46978;50.288;28.624;2023-02-20T00:36:37;98544.31;;;-2.57;83.29
60337;BME280;46978;50.288;28.624;2023-02-20T00:37:39;98549.40;;;-2.57;83.21
60337;BME280;46978;50.288;28.624;2023-02-20T00:38:42;98545.23;;;-2.55;82.96
60337;BME280;46978;50.288;28.624;2023-02-20T00:39:44;98546.92;;;-2.54;82.88
60337;BME280;46978;50.288;28.624;2023-02-20T00:40:46;98551.97;;;-2.56;82.69
60337;BME280;46978;50.288;28.624;2023-02-20T00:41:47;98549.43;;;-2.56;82.42
60337;BME280;46978;50.288;28.624;2023-02-20T00:42:49;98547.73;;;-2.57;82.44
60337;BME280;46978;50.288;28.624;2023-02-20T00:43:51;98553.63;;;-2.58;82.31
60337;BME280;46978;50.288;28.624;2023-02-20T00:44:52;98549.40;;;-2.57;81.92
60337;BME280;46978;50.288;28.624;2023-02-20T00:45:54;98545.23;;;-2.55;81.84
60337;BME280;46978;50.288;28.624;2023-02-20T00:46:56;98551.97;;;-2.56;81.77
60337;BME280;46978;50.288;28.624;2023-02-20T00:47:58;98551.06;;;-2.59;81.84
60337;BME280;46978;50.288;28.624;2023-02-20T00:48:59;98548.48;;;-2.61;81.87
60337;BME280;46978;50.288;28.624;2023-02-20T00:50:01;98551.91;;;-2.59;81.60
60337;BME280;46978;50.288;28.624;2023-02-20T00:51:03;98553.59;;;-2.59;81.76
60337;BME280;46978;50.288;28.624;2023-02-20T00:52:05;98551.06;;;-2.59;81.51
60337;BME280;46978;50.288;28.624;2023-02-20T00:53:06;98558.68;;;-2.59;81.46
60337;BME280;46978;50.288;28.624;2023-02-20T00:54:08;98561.19;;;-2.61;81.38
60337;BME280;46978;50.288;28.624;2023-02-20T00:55:10;98542.56;;;-2.61;81.43
60337;BME280;46978;50.288;28.624;2023-02-20T00:56:13;98556.92;;;-2.62;81.66
60337;BME280;46978;50.288;28.624;2023-02-20T00:57:15;98556.11;;;-2.61;81.43
60337;BME280;46978;50.288;28.624;2023-02-20T00:58:17;98561.22;;;-2.59;81.45
60337;BME280;46978;50.288;28.624;2023-02-20T00:59:19;98555.33;;;-2.58;81.36
60337;BME280;46978;50.288;28.624;2023-02-20T01:00:24;98561.19;;;-2.61;81.44
60337;BME280;46978;50.288;28.624;2023-02-20T01:01:26;98561.22;;;-2.59;81.67
60337;BME280;46978;50.288;28.624;2023-02-20T01:02:28;98558.64;;;-2.61;81.80
60337;BME280;46978;50.288;28.624;2023-02-20T01:03:30;98557.73;;;-2.64;81.97
60337;BME280;46978;50.288;28.624;2023-02-20T01:04:31;98561.97;;;-2.65;82.22
60337;BME280;46978;50.288;28.624;2023-02-20T01:05:33;98553.47;;;-2.65;82.56
60337;BME280;46978;50.288;28.624;2023-02-20T01:06:35;98558.55;;;-2.65;82.74
60337;BME280;46978;50.288;28.624;2023-02-20T01:07:36;98560.34;;;-2.61;82.64
60337;BME280;46978;50.288;28.624;2023-02-20T01:08:38;98556.92;;;-2.62;82.82
60337;BME280;46978;50.288;28.624;2023-02-20T01:09:40;98566.23;;;-2.62;82.89
60337;BME280;46978;50.288;28.624;2023-02-20T01:10:42;98559.42;;;-2.65;82.97
60337;BME280;46978;50.288;28.624;2023-02-20T01:11:44;98562.75;;;-2.67;83.24
60337;BME280;46978;50.288;28.624;2023-02-20T01:12:46;98560.20;;;-2.67;83.35
60337;BME280;46978;50.288;28.624;2023-02-20T01:13:48;98562.75;;;-2.67;83.33
60337;BME280;46978;50.288;28.624;2023-02-20T01:14:49;98562.68;;;-2.71;83.54
60337;BME280;46978;50.288;28.624;2023-02-20T01:15:51;98557.53;;;-2.74;83.63
60337;BME280;46978;50.288;28.624;2023-02-20T01:16:53;98557.47;;;-2.77;83.77
60337;BME280;46978;50.288;28.624;2023-02-20T01:17:55;98558.25;;;-2.79;83.97
60337;BME280;46978;50.288;28.624;2023-02-20T01:18:56;98560.82;;;-2.78;84.04
60337;BME280;46978;50.288;28.624;2023-02-20T01:19:58;98563.39;;;-2.76;83.74
60337;BME280;46978;50.288;28.624;2023-02-20T01:21:00;98559.20;;;-2.76;83.82
60337;BME280;46978;50.288;28.624;2023-02-20T01:22:02;98556.66;;;-2.76;83.65
60337;BME280;46978;50.288;28.624;2023-02-20T01:23:04;98565.09;;;-2.77;83.96
60337;BME280;46978;50.288;28.624;2023-02-20T01:24:05;98556.62;;;-2.77;83.64
60337;BME280;46978;50.288;28.624;2023-02-20T01:25:07;98560.82;;;-2.78;83.64
60337;BME280;46978;50.288;28.624;2023-02-20T01:26:09;98547.20;;;-2.81;83.74
60337;BME280;46978;50.288;28.624;2023-02-20T01:27:11;98559.09;;;-2.80;83.76
60337;BME280;46978;50.288;28.624;2023-02-20T01:28:13;98557.36;;;-2.81;83.73
60337;BME280;46978;50.288;28.624;2023-02-20T01:29:15;98560.69;;;-2.84;83.50
60337;BME280;46978;50.288;28.624;2023-02-20T01:30:18;98561.53;;;-2.85;83.48
60337;BME280;46978;50.288;28.624;2023-02-20T01:31:20;98564.84;;;-2.87;83.40
60337;BME280;46978;50.288;28.624;2023-02-20T01:32:22;98562.34;;;-2.86;83.37
60337;BME280;46978;50.288;28.624;2023-02-20T01:33:23;98560.61;;;-2.87;83.50
60337;BME280;46978;50.288;28.624;2023-02-20T01:34:25;98562.27;;;-2.89;83.48
60337;BME280;46978;50.288;28.624;2023-02-20T01:35:27;98561.42;;;-2.90;83.40
60337;BME280;46978;50.288;28.624;2023-02-20T01:36:29;98571.55;;;-2.91;83.45
60337;BME280;46978;50.288;28.624;2023-02-20T01:37:31;98566.47;;;-2.91;83.26
60337;BME280;46978;50.288;28.624;2023-02-20T01:38:33;98571.58;;;-2.90;83.13
60337;BME280;46978;50.288;28.624;2023-02-20T01:39:34;98574.12;;;-2.90;82.98
60337;BME280;46978;50.288;28.624;2023-02-20T01:40:36;98578.31;;;-2.90;83.18
60337;BME280;46978;50.288;28.624;2023-02-20T01:41:38;98564.00;;;-2.88;82.82
60337;BME280;46978;50.288;28.624;2023-02-20T01:42:40;98571.69;;;-2.85;82.45
60337;BME280;46978;50.288;28.624;2023-02-20T01:43:41;98574.22;;;-2.85;82.48
60337;BME280;46978;50.288;28.624;2023-02-20T01:44:43;98580.99;;;-2.84;82.65
60337;BME280;46978;50.288;28.624;2023-02-20T01:45:48;98564.88;;;-2.86;82.55
60337;BME280;46978;50.288;28.624;2023-02-20T01:46:57;98569.92;;;-2.87;82.41
60337;BME280;46978;50.288;28.624;2023-02-20T01:47:59;98575.00;;;-2.87;82.66
60337;BME280;46978;50.288;28.624;2023-02-20T01:49:07;98569.89;;;-2.89;82.52
60337;BME280;46978;50.288;28.624;2023-02-20T01:50:10;98566.50;;;-2.90;82.62
60337;BME280;46978;50.288;28.624;2023-02-20T01:51:13;98564.74;;;-2.92;82.67
60337;BME280;46978;50.288;28.624;2023-02-20T01:53:22;98571.51;;;-2.93;82.41
60337;BME280;46978;50.288;28.624;2023-02-20T01:54:28;98568.05;;;-2.95;82.29
60337;BME280;46978;50.288;28.624;2023-02-20T01:55:37;98574.79;;;-2.97;82.41
60337;BME280;46978;50.288;28.624;2023-02-20T01:56:39;98575.56;;;-2.99;82.35
60337;BME280;46978;50.288;28.624;2023-02-20T01:57:47;98569.57;;;-3.03;82.29
60337;BME280;46978;50.288;28.624;2023-02-20T01:58:48;98568.72;;;-3.03;82.56
60337;BME280;46978;50.288;28.624;2023-02-20T01:59:53;98572.07;;;-3.04;82.63
60337;BME280;46978;50.288;28.624;2023-02-20T02:00:58;98577.15;;;-3.04;82.69
60337;BME280;46978;50.288;28.624;2023-02-20T02:02:01;98582.22;;;-3.04;82.78
60337;BME280;46978;50.288;28.624;2023-02-20T02:03:06;98585.58;;;-3.06;82.35
60337;BME280;46978;50.288;28.624;2023-02-20T02:04:10;98585.58;;;-3.06;82.35
60337;BME280;46978;50.288;28.624;2023-02-20T02:05:14;98576.30;;;-3.05;82.51
60337;BME280;46978;50.288;28.624;2023-02-20T02:06:17;98588.11;;;-3.06;82.54
60337;BME280;46978;50.288;28.624;2023-02-20T02:07:19;98577.08;;;-3.08;82.50
60337;BME280;46978;50.288;28.624;2023-02-20T02:08:21;98582.96;;;-3.09;82.49
60337;BME280;46978;50.288;28.624;2023-02-20T02:11:58;98583.73;;;-3.13;82.53
60337;BME280;46978;50.288;28.624;2023-02-20T02:13:00;98575.17;;;-3.16;82.40
60337;BME280;46978;50.288;28.624;2023-02-20T02:14:02;98583.66;;;-3.16;82.29
60337;BME280;46978;50.288;28.624;2023-02-20T02:15:15;98583.70;;;-3.14;82.20
60337;BME280;46978;50.288;28.624;2023-02-20T02:19:20;98582.78;;;-3.16;82.17
60337;BME280;46978;50.288;28.624;2023-02-20T02:21:39;98588.70;;;-3.17;81.87
60337;BME280;46978;50.288;28.624;2023-02-20T02:32:09;98590.20;;;-3.24;81.11
60337;BME280;46978;50.288;28.624;2023-02-20T02:34:39;98593.59;;;-3.25;80.90
60337;BME280;46978;50.288;28.624;2023-02-20T02:38:50;98588.33;;;-3.33;81.25
60337;BME280;46978;50.288;28.624;2023-02-20T02:42:21;98594.86;;;-3.41;81.29
60337;BME280;46978;50.288;28.624;2023-02-20T02:43:44;98587.22;;;-3.43;81.59
60337;BME280;46978;50.288;28.624;2023-02-20T02:44:55;98588.09;;;-3.42;81.64
60337;BME280;46978;50.288;28.624;2023-02-20T02:46:06;98592.25;;;-3.44;81.50
60337;BME280;46978;50.288;28.624;2023-02-20T02:48:20;98588.98;;;-3.40;81.27
60337;BME280;46978;50.288;28.624;2023-02-20T02:49:33;98598.24;;;-3.42;81.05
60337;BME280;46978;50.288;28.624;2023-02-20T02:50:35;98592.25;;;-3.44;81.05
60337;BME280;46978;50.288;28.624;2023-02-20T02:51:39;98588.06;;;-3.44;80.81
60337;BME280;46978;50.288;28.624;2023-02-20T02:52:42;98593.98;;;-3.43;80.76
60337;BME280;46978;50.288;28.624;2023-02-20T02:54:10;98592.21;;;-3.46;80.88
60337;BME280;46978;50.288;28.624;2023-02-20T02:55:17;98598.13;;;-3.47;81.12
60337;BME280;46978;50.288;28.624;2023-02-20T02:56:19;98594.62;;;-3.50;81.00
60337;BME280;46978;50.288;28.624;2023-02-20T02:57:24;98592.98;;;-3.50;80.53
60337;BME280;46978;50.288;28.624;2023-02-20T02:58:26;98587.91;;;-3.50;80.35
60337;BME280;46978;50.288;28.624;2023-02-20T02:59:30;98585.41;;;-3.48;80.33
60337;BME280;46978;50.288;28.624;2023-02-20T03:00:46;98593.86;;;-3.48;79.97
60337;BME280;46978;50.288;28.624;2023-02-20T03:01:51;98588.83;;;-3.46;79.64
60337;BME280;46978;50.288;28.624;2023-02-20T03:03:22;98591.36;;;-3.46;79.66
60337;BME280;46978;50.288;28.624;2023-02-20T03:04:25;98595.55;;;-3.48;79.52
60337;BME280;46978;50.288;28.624;2023-02-20T03:05:36;98593.90;;;-3.46;79.41
60337;BME280;46978;50.288;28.624;2023-02-20T03:06:40;98594.67;;;-3.49;79.37
60337;BME280;46978;50.288;28.624;2023-02-20T03:07:43;98593.78;;;-3.51;79.58
60337;BME280;46978;50.288;28.624;2023-02-20T03:08:48;98592.02;;;-3.53;79.53
60337;BME280;46978;50.288;28.624;2023-02-20T03:10:04;98597.93;;;-3.54;79.64
60337;BME280;46978;50.288;28.624;2023-02-20T03:11:14;98597.89;;;-3.56;79.78
60337;BME280;46978;50.288;28.624;2023-02-20T03:12:17;98598.78;;;-3.54;79.52
60337;BME280;46978;50.288;28.624;2023-02-20T03:13:20;98590.36;;;-3.53;79.20
60337;BME280;46978;50.288;28.624;2023-02-20T03:14:27;98597.97;;;-3.53;79.24
60337;BME280;46978;50.288;28.624;2023-02-20T03:15:33;98598.78;;;-3.54;79.32
60337;BME280;46978;50.288;28.624;2023-02-20T03:18:11;98597.84;;;-3.57;79.42
60337;BME280;46978;50.288;28.624;2023-02-20T03:19:15;98596.97;;;-3.58;79.12
60337;BME280;46978;50.288;28.624;2023-02-20T03:20:21;98602.08;;;-3.56;79.37
60337;BME280;46978;50.288;28.624;2023-02-20T03:21:24;98601.19;;;-3.58;79.33
60337;BME280;46978;50.288;28.624;2023-02-20T03:23:41;98599.47;;;-3.60;79.29
60337;BME280;46978;50.288;28.624;2023-02-20T03:24:45;98604.66;;;-3.55;78.71
60337;BME280;46978;50.288;28.624;2023-02-20T03:26:04;98600.50;;;-3.53;78.48
60337;BME280;46978;50.288;28.624;2023-02-20T03:27:06;98603.08;;;-3.51;78.22
60337;BME280;46978;50.288;28.624;2023-02-20T03:28:14;98600.55;;;-3.51;78.22
60337;BME280;46978;50.288;28.624;2023-02-20T03:29:26;98600.55;;;-3.51;78.58
60337;BME280;46978;50.288;28.624;2023-02-20T03:30:30;98589.52;;;-3.52;78.53
60337;BME280;46978;50.288;28.624;2023-02-20T03:32:42;98595.36;;;-3.56;78.52
60337;BME280;46978;50.288;28.624;2023-02-20T03:35:08;98592.89;;;-3.53;78.20
60337;BME280;46978;50.288;28.624;2023-02-20T03:36:13;98597.97;;;-3.53;78.50
60337;BME280;46978;50.288;28.624;2023-02-20T03:37:18;98600.50;;;-3.53;78.39
60337;BME280;46978;50.288;28.624;2023-02-20T03:38:23;98600.50;;;-3.53;78.44
60337;BME280;46978;50.288;28.624;2023-02-20T03:39:29;98599.58;;;-3.55;78.36
60337;BME280;46978;50.288;28.624;2023-02-20T03:40:32;98602.96;;;-3.56;78.45
60337;BME280;46978;50.288;28.624;2023-02-20T03:41:35;98602.08;;;-3.56;78.45
60337;BME280;46978;50.288;28.624;2023-02-20T03:42:42;98603.77;;;-3.57;78.47
60337;BME280;46978;50.288;28.624;2023-02-20T03:43:45;98601.23;;;-3.57;78.56
60337;BME280;46978;50.288;28.624;2023-02-20T03:44:48;98601.23;;;-3.57;78.46
60337;BME280;46978;50.288;28.624;2023-02-20T03:45:51;98608.88;;;-3.55;78.37
60337;BME280;46978;50.288;28.624;2023-02-20T03:46:54;98603.81;;;-3.55;78.12
60337;BME280;46978;50.288;28.624;2023-02-20T03:48:01;98602.12;;;-3.55;78.27
60337;BME280;46978;50.288;28.624;2023-02-20T03:49:06;98602.96;;;-3.56;78.41
60337;BME280;46978;50.288;28.624;2023-02-20T03:50:09;98604.54;;;-3.60;78.36
60337;BME280;46978;50.288;28.624;2023-02-20T03:51:12;98611.25;;;-3.62;78.51
60337;BME280;46978;50.288;28.624;2023-02-20T03:52:16;98594.27;;;-3.64;78.59
60337;BME280;46978;50.288;28.624;2023-02-20T03:53:18;98605.30;;;-3.64;78.51
60337;BME280;46978;50.288;28.624;2023-02-20T03:54:20;98599.34;;;-3.64;78.72
60337;BME280;46978;50.288;28.624;2023-02-20T03:55:22;98596.81;;;-3.64;79.01
60337;BME280;46978;50.288;28.624;2023-02-20T03:56:27;98594.27;;;-3.64;78.73
60337;BME280;46978;50.288;28.624;2023-02-20T03:57:36;98603.61;;;-3.63;78.73
60337;BME280;46978;50.288;28.624;2023-02-20T03:58:41;98598.54;;;-3.63;78.57
60337;BME280;46978;50.288;28.624;2023-02-20T04:00:59;98606.14;;;-3.63;78.60
60337;BME280;46978;50.288;28.624;2023-02-20T04:02:07;98594.31;;;-3.63;78.53
60337;BME280;46978;50.288;28.624;2023-02-20T04:03:12;98596.81;;;-3.64;78.82
60337;BME280;46978;50.288;28.624;2023-02-20T04:04:16;98597.57;;;-3.68;78.68
60337;BME280;46978;50.288;28.624;2023-02-20T04:05:21;98598.34;;;-3.71;78.93
60337;BME280;46978;50.288;28.624;2023-02-20T04:06:27;98595.80;;;-3.71;78.84
60337;BME280;46978;50.288;28.624;2023-02-20T04:07:35;98599.19;;;-3.70;79.00
60337;BME280;46978;50.288;28.624;2023-02-20T04:09:46;98593.19;;;-3.74;79.09
60337;BME280;46978;50.288;28.624;2023-02-20T04:10:55;98588.12;;;-3.74;79.29
60337;BME280;46978;50.288;28.624;2023-02-20T04:12:06;98595.68;;;-3.75;79.17
60337;BME280;46978;50.288;28.624;2023-02-20T04:13:09;98590.57;;;-3.77;79.21
60337;BME280;46978;50.288;28.624;2023-02-20T04:14:14;98588.88;;;-3.76;79.42
60337;BME280;46978;50.288;28.624;2023-02-20T04:15:18;98599.06;;;-3.75;79.28
60337;BME280;46978;50.288;28.624;2023-02-20T04:16:21;98599.02;;;-3.76;79.43
60337;BME280;46978;50.288;28.624;2023-02-20T04:17:29;98593.06;;;-3.79;79.29
60337;BME280;46978;50.288;28.624;2023-02-20T04:18:33;98597.33;;;-3.77;79.78
60337;BME280;46978;50.288;28.624;2023-02-20T04:19:35;98593.88;;;-3.80;79.64
60337;BME280;46978;50.288;28.624;2023-02-20T04:20:37;98589.60;;;-3.82;79.55
60337;BME280;46978;50.288;28.624;2023-02-20T04:21:41;98593.75;;;-3.84;79.66
60337;BME280;46978;50.288;28.624;2023-02-20T04:22:46;98586.95;;;-3.87;79.96
60337;BME280;46978;50.288;28.624;2023-02-20T04:23:54;98592.86;;;-3.86;80.24
60337;BME280;46978;50.288;28.624;2023-02-20T04:24:57;98590.33;;;-3.86;80.07
60337;BME280;46978;50.288;28.624;2023-02-20T04:26:08;98593.67;;;-3.87;80.12
60337;BME280;46978;50.288;28.624;2023-02-20T04:27:13;98593.63;;;-3.89;80.18
60337;BME280;46978;50.288;28.624;2023-02-20T04:28:16;98588.52;;;-3.90;80.44
60337;BME280;46978;50.288;28.624;2023-02-20T04:29:19;98592.73;;;-3.91;80.69
60337;BME280;46978;50.288;28.624;2023-02-20T04:30:22;98593.55;;;-3.92;80.68
60337;BME280;46978;50.288;28.624;2023-02-20T04:31:23;98597.77;;;-3.92;80.83
60337;BME280;46978;50.288;28.624;2023-02-20T04:32:26;98591.77;;;-3.96;80.93
60337;BME280;46978;50.288;28.624;2023-02-20T04:33:27;98594.30;;;-3.96;81.08
60337;BME280;46978;50.288;28.624;2023-02-20T04:34:29;98590.96;;;-3.95;81.04
60337;BME280;46978;50.288;28.624;2023-02-20T04:35:31;98590.08;;;-3.96;81.08
60337;BME280;46978;50.288;28.624;2023-02-20T04:36:33;98589.23;;;-3.96;81.03
60337;BME280;46978;50.288;28.624;2023-02-20T04:37:34;98590.03;;;-3.97;81.16
60337;BME280;46978;50.288;28.624;2023-02-20T04:38:36;98579.91;;;-3.97;81.01
60337;BME280;46978;50.288;28.624;2023-02-20T04:39:38;98594.34;;;-3.94;80.85
60337;BME280;46978;50.288;28.624;2023-02-20T04:40:40;98588.42;;;-3.95;80.69
60337;BME280;46978;50.288;28.624;2023-02-20T04:41:41;98584.16;;;-3.96;80.75
60337;BME280;46978;50.288;28.624;2023-02-20T04:42:43;98591.77;;;-3.96;80.86
60337;BME280;46978;50.288;28.624;2023-02-20T04:43:45;98590.08;;;-3.96;80.83
60337;BME280;46978;50.288;28.624;2023-02-20T04:44:46;98586.70;;;-3.96;81.13
60337;BME280;46978;50.288;28.624;2023-02-20T04:45:48;98590.03;;;-3.97;81.01
60337;BME280;46978;50.288;28.624;2023-02-20T04:46:50;98590.03;;;-3.97;80.95
60337;BME280;46978;50.288;28.624;2023-02-20T04:47:52;98595.11;;;-3.97;80.83
60337;BME280;46978;50.288;28.624;2023-02-20T04:48:53;98595.02;;;-4.00;81.12
60337;BME280;46978;50.288;28.624;2023-02-20T04:49:55;98590.79;;;-4.01;81.28
60337;BME280;46978;50.288;28.624;2023-02-20T04:50:57;98590.75;;;-4.03;81.25
60337;BME280;46978;50.288;28.624;2023-02-20T04:51:59;98595.81;;;-4.03;81.51
60337;BME280;46978;50.288;28.624;2023-02-20T04:53:01;98594.89;;;-4.05;81.56
60337;BME280;46978;50.288;28.624;2023-02-20T04:54:03;98594.05;;;-4.05;81.65
60337;BME280;46978;50.288;28.624;2023-02-20T04:55:05;98594.05;;;-4.05;81.58
60337;BME280;46978;50.288;28.624;2023-02-20T04:56:07;98599.92;;;-4.06;81.51
60337;BME280;46978;50.288;28.624;2023-02-20T04:57:08;98598.22;;;-4.07;81.77
60337;BME280;46978;50.288;28.624;2023-02-20T04:58:10;98597.34;;;-4.08;81.63
60337;BME280;46978;50.288;28.624;2023-02-20T04:59:12;98598.18;;;-4.09;81.64
60337;BME280;46978;50.288;28.624;2023-02-20T05:00:18;98595.61;;;-4.10;81.64
60337;BME280;46978;50.288;28.624;2023-02-20T05:01:20;98588.81;;;-4.11;81.97
60337;BME280;46978;50.288;28.624;2023-02-20T05:02:21;98593.96;;;-4.08;82.12
60337;BME280;46978;50.288;28.624;2023-02-20T05:03:23;98596.58;;;-4.05;82.28
60337;BME280;46978;50.288;28.624;2023-02-20T05:04:27;98603.38;;;-4.04;82.28
60337;BME280;46978;50.288;28.624;2023-02-20T05:05:29;98601.73;;;-4.02;82.24
60337;BME280;46978;50.288;28.624;2023-02-20T05:06:30;98598.44;;;-4.00;82.42
60337;BME280;46978;50.288;28.624;2023-02-20T05:07:33;98599.33;;;-3.98;82.30
60337;BME280;46978;50.288;28.624;2023-02-20T05:08:35;98601.91;;;-3.96;82.34
60337;BME280;46978;50.288;28.624;2023-02-20T05:09:36;98601.91;;;-3.96;82.38
60337;BME280;46978;50.288;28.624;2023-02-20T05:10:40;98605.33;;;-3.94;82.50
60337;BME280;46978;50.288;28.624;2023-02-20T05:11:44;98608.70;;;-3.93;82.61
60337;BME280;46978;50.288;28.624;2023-02-20T05:12:48;98610.48;;;-3.91;82.72
60337;BME280;46978;50.288;28.624;2023-02-20T05:13:49;98605.49;;;-3.88;82.77
60337;BME280;46978;50.288;28.624;2023-02-20T05:14:51;98604.69;;;-3.87;82.83
60337;BME280;46978;50.288;28.624;2023-02-20T05:15:53;98615.63;;;-3.88;82.81
60337;BME280;46978;50.288;28.624;2023-02-20T05:16:55;98605.58;;;-3.85;82.98
60337;BME280;46978;50.288;28.624;2023-02-20T05:17:57;98619.22;;;-3.80;82.82
60337;BME280;46978;50.288;28.624;2023-02-20T05:18:59;98611.66;;;-3.78;82.61
60337;BME280;46978;50.288;28.624;2023-02-20T05:20:01;98604.02;;;-3.80;82.63
60337;BME280;46978;50.288;28.624;2023-02-20T05:21:02;98598.14;;;-3.79;83.13
60337;BME280;46978;50.288;28.624;2023-02-20T05:22:10;98598.22;;;-3.75;82.95
60337;BME280;46978;50.288;28.624;2023-02-20T05:23:12;98600.75;;;-3.75;82.97
60337;BME280;46978;50.288;28.624;2023-02-20T05:24:14;98600.75;;;-3.75;82.93
60337;BME280;46978;50.288;28.624;2023-02-20T05:25:16;98594.00;;;-3.75;83.13
60337;BME280;46978;50.288;28.624;2023-02-20T05:26:20;98595.77;;;-3.72;83.46
60337;BME280;46978;50.288;28.624;2023-02-20T05:27:23;98597.53;;;-3.70;83.41
60337;BME280;46978;50.288;28.624;2023-02-20T05:28:25;98603.53;;;-3.66;83.67
60337;BME280;46978;50.288;28.624;2023-02-20T05:29:26;98598.54;;;-3.63;83.58
60337;BME280;46978;50.288;28.624;2023-02-20T05:30:28;98603.69;;;-3.60;83.79
60337;BME280;46978;50.288;28.624;2023-02-20T05:31:30;98599.51;;;-3.58;83.63
60337;BME280;46978;50.288;28.624;2023-02-20T05:32:32;98601.27;;;-3.55;83.84
60337;BME280;46978;50.288;28.624;2023-02-20T05:33:33;98603.84;;;-3.54;83.86
60337;BME280;46978;50.288;28.624;2023-02-20T05:34:35;98604.78;;;-3.50;83.75
60337;BME280;46978;50.288;28.624;2023-02-20T05:35:37;98605.70;;;-3.48;84.08
60337;BME280;46978;50.288;28.624;2023-02-20T05:36:38;98601.47;;;-3.48;84.28
60337;BME280;46978;50.288;28.624;2023-02-20T05:37:40;98596.44;;;-3.46;84.16
60337;BME280;46978;50.288;28.624;2023-02-20T05:38:42;98608.34;;;-3.44;84.30
60337;BME280;46978;50.288;28.624;2023-02-20T05:39:44;98603.31;;;-3.42;84.18
60337;BME280;46978;50.288;28.624;2023-02-20T05:40:47;98593.98;;;-3.43;84.18
60337;BME280;46978;50.288;28.624;2023-02-20T05:41:48;98596.59;;;-3.40;84.87
60337;BME280;46978;50.288;28.624;2023-02-20T05:42:50;98596.67;;;-3.37;84.86
60337;BME280;46978;50.288;28.624;2023-02-20T05:43:51;98601.78;;;-3.35;84.76
60337;BME280;46978;50.288;28.624;2023-02-20T05:44:53;98601.81;;;-3.34;84.92
60337;BME280;46978;50.288;28.624;2023-02-20T05:45:55;98595.09;;;-3.32;84.82
60337;BME280;46978;50.288;28.624;2023-02-20T05:46:57;98589.25;;;-3.29;85.12
60337;BME280;46978;50.288;28.624;2023-02-20T05:47:58;98596.13;;;-3.25;85.31
60337;BME280;46978;50.288;28.624;2023-02-20T05:49:00;98590.28;;;-3.21;85.18
60337;BME280;46978;50.288;28.624;2023-02-20T05:50:02;98590.39;;;-3.16;85.06
60337;BME280;46978;50.288;28.624;2023-02-20T05:51:03;98596.39;;;-3.14;85.04
60337;BME280;46978;50.288;28.624;2023-02-20T05:52:05;98595.58;;;-3.12;85.01
60337;BME280;46978;50.288;28.624;2023-02-20T05:53:07;98592.27;;;-3.09;84.92
60337;BME280;46978;50.288;28.624;2023-02-20T05:54:09;98592.30;;;-3.08;84.89
60337;BME280;46978;50.288;28.624;2023-02-20T05:55:10;98603.38;;;-3.04;84.93
60337;BME280;46978;50.288;28.624;2023-02-20T05:56:13;98595.02;;;-3.00;84.71
60337;BME280;46978;50.288;28.624;2023-02-20T05:57:15;98598.48;;;-2.96;84.77
60337;BME280;46978;50.288;28.624;2023-02-20T05:58:16;98605.36;;;-2.92;84.62
60337;BME280;46978;50.288;28.624;2023-02-20T05:59:21;98596.13;;;-2.89;84.57
60337;BME280;46978;50.288;28.624;2023-02-20T06:00:25;98612.27;;;-2.86;84.37
60337;BME280;46978;50.288;28.624;2023-02-20T06:01:29;98608.11;;;-2.83;84.23
60337;BME280;46978;50.288;28.624;2023-02-20T06:02:31;98602.25;;;-2.80;84.15
60337;BME280;46978;50.288;28.624;2023-02-20T06:03:33;98596.37;;;-2.78;84.05
60337;BME280;46978;50.288;28.624;2023-02-20T06:04:35;98609.98;;;-2.76;83.94